createdAt,value
2022-09-02T00:01:34.164Z,100947.28
2022-09-02T00:06:34.777Z,100948.41
2022-09-02T00:11:35.562Z,100947.03
2022-09-02T00:16:34.114Z,100948.41
2022-09-02T00:21:34.927Z,100959.88
2022-09-02T00:26:33.237Z,100961.53
2022-09-02T00:31:33.821Z,100961.00
2022-09-02T00:36:34.225Z,100956.84
2022-09-02T00:41:32.602Z,100965.78
2022-09-02T00:46:33.164Z,100968.84
2022-09-02T00:51:42.562Z,100966.06
2022-09-02T00:56:44.821Z,100964.97
2022-09-02T01:01:43.141Z,100975.81
2022-09-02T01:06:45.513Z,100971.91
2022-09-02T01:11:49.639Z,100963.84
2022-09-02T01:16:50.730Z,100964.88
2022-09-02T01:21:51.195Z,100962.97
2022-09-02T01:26:50.018Z,100960.97
2022-09-02T01:31:48.585Z,100959.47
2022-09-02T01:36:46.970Z,100964.13
2022-09-02T01:41:46.588Z,100964.72
2022-09-02T01:46:45.397Z,100966.56
2022-09-02T01:51:44.118Z,100971.41
2022-09-02T01:56:42.403Z,100978.84
2022-09-02T02:01:41.963Z,100978.41
2022-09-02T02:06:43.753Z,100983.31
2022-09-02T02:11:42.228Z,100973.75
2022-09-02T02:16:42.329Z,100975.47
2022-09-02T02:21:40.643Z,100972.63
2022-09-02T02:26:38.933Z,100991.66
2022-09-02T02:31:39.498Z,100993.16
2022-09-02T02:36:41.118Z,100986.63
2022-09-02T02:41:40.320Z,100993.94
2022-09-02T02:46:43.714Z,100983.50
2022-09-02T02:51:44.502Z,100985.78
2022-09-02T02:56:42.978Z,100990.72
2022-09-02T03:01:41.399Z,100998.63
2022-09-02T03:06:39.993Z,100988.53
2022-09-02T03:11:39.599Z,101003.75
2022-09-02T03:16:38.697Z,100993.34
2022-09-02T03:21:39.216Z,101005.09
2022-09-02T03:26:42.725Z,101011.94
2022-09-02T03:31:42.642Z,101007.38
2022-09-02T03:36:44.233Z,100999.25
2022-09-02T03:41:46.906Z,101001.88
2022-09-02T03:46:46.155Z,101008.63
2022-09-02T03:51:44.954Z,101006.31
2022-09-02T03:56:43.766Z,101013.41
2022-09-02T04:01:44.967Z,101016.78
2022-09-02T04:06:43.201Z,101019.00
2022-09-02T04:11:43.205Z,101016.97
2022-09-02T04:16:44.517Z,101021.22
2022-09-02T04:21:43.186Z,101027.44
2022-09-02T04:26:44.835Z,101030.19
2022-09-02T04:31:47.444Z,101030.78
2022-09-02T04:36:45.703Z,101034.66
2022-09-02T04:41:45.421Z,101041.84
2022-09-02T04:46:45.355Z,101064.69
2022-09-02T04:51:50.420Z,101065.84
2022-09-02T04:56:49.049Z,101059.50
2022-09-02T05:01:50.360Z,101076.50
2022-09-02T05:06:54.752Z,101093.38
2022-09-02T05:11:57.443Z,101085.59
2022-09-02T05:16:58.286Z,101093.56
2022-09-02T05:21:59.316Z,101084.13
2022-09-02T05:27:07.783Z,101082.63
2022-09-02T05:32:08.263Z,101065.16
2022-09-02T05:37:10.391Z,101060.38
2022-09-02T05:42:08.951Z,101065.94
2022-09-02T05:47:07.548Z,101075.16
2022-09-02T05:52:10.289Z,101066.06
2022-09-02T05:57:18.713Z,101058.75
2022-09-02T06:02:30.146Z,101061.81
2022-09-02T06:07:28.950Z,101071.03
2022-09-02T06:12:33.239Z,101060.63
2022-09-02T06:17:31.901Z,101059.00
2022-09-02T06:22:32.757Z,101076.78
2022-09-02T06:27:33.648Z,101059.81
2022-09-02T06:32:33.072Z,101073.44
2022-09-02T06:37:35.635Z,101074.28
2022-09-02T06:42:36.286Z,101076.47
2022-09-02T06:47:50.915Z,101078.75
2022-09-02T06:52:50.106Z,101069.44
2022-09-02T06:57:50.829Z,101064.59
2022-09-02T07:03:11.301Z,101071.25
2022-09-02T07:08:10.472Z,101056.00
2022-09-02T07:13:10.318Z,101080.44
2022-09-02T07:18:08.746Z,101079.75
2022-09-02T07:23:08.452Z,101081.75
2022-09-02T07:28:07.449Z,101087.56
2022-09-02T07:33:08.614Z,101082.94
2022-09-02T07:38:08.229Z,101073.22
2022-09-02T07:43:10.205Z,101077.25
2022-09-02T07:48:10.471Z,101078.56
2022-09-02T07:53:09.741Z,101078.53
2022-09-02T07:58:12.081Z,101066.66
2022-09-02T08:03:16.814Z,101070.38
2022-09-02T08:08:22.042Z,101075.97
2022-09-02T08:13:20.499Z,101082.22
2022-09-02T08:18:22.653Z,101064.03
2022-09-02T08:23:35.942Z,101060.22
2022-09-02T08:28:35.884Z,101070.34
2022-09-02T08:33:35.475Z,101060.81
2022-09-02T08:38:33.659Z,101066.00
2022-09-02T08:43:40.294Z,101053.91
2022-09-02T08:48:45.357Z,101055.75
2022-09-02T08:53:51.386Z,101038.75
2022-09-02T08:58:56.238Z,101038.81
2022-09-02T09:04:12.643Z,101018.09
2022-09-02T09:09:22.794Z,101013.53
2022-09-02T09:14:30.194Z,101014.75
2022-09-02T09:19:41.822Z,101005.91
2022-09-02T09:24:42.692Z,100991.59
2022-09-02T09:29:41.106Z,100978.09
2022-09-02T09:35:07.283Z,100968.34
2022-09-02T09:40:26.731Z,100960.81
2022-09-02T09:45:32.370Z,100977.97
2022-09-02T09:50:32.192Z,100968.53
2022-09-02T09:55:30.374Z,100964.13
2022-09-02T10:00:32.992Z,100956.72
2022-09-02T10:05:36.962Z,100951.84
2022-09-02T10:10:35.764Z,100943.22
2022-09-02T10:15:44.826Z,100941.81
2022-09-02T10:31:33.529Z,100911.16
2022-09-02T10:36:38.061Z,100910.38
2022-09-02T10:46:54.713Z,100888.97
2022-09-02T10:52:05.570Z,100871.16
2022-09-02T10:57:11.013Z,100865.72
2022-09-02T11:02:17.547Z,100852.09
2022-09-02T11:07:23.353Z,100822.44
2022-09-02T11:12:27.981Z,100840.81
2022-09-02T11:17:31.478Z,100848.88
2022-09-02T11:22:39.499Z,100855.03
2022-09-02T11:27:45.403Z,100852.50
2022-09-02T11:32:51.574Z,100845.00
2022-09-02T11:37:57.610Z,100838.78
2022-09-02T11:43:08.891Z,100839.50
2022-09-02T11:48:37.390Z,100839.69
2022-09-02T11:53:41.605Z,100834.50
2022-09-02T11:58:41.957Z,100832.56
2022-09-02T12:04:15.855Z,100818.69
2022-09-02T12:09:14.186Z,100817.28
2022-09-02T12:14:35.181Z,100828.09
2022-09-02T12:19:43.745Z,100814.75
2022-09-02T12:24:53.417Z,100807.25
2022-09-02T12:29:52.439Z,100800.78
2022-09-02T12:35:07.912Z,100810.56
2022-09-02T12:40:16.597Z,100806.50
2022-09-02T12:45:28.298Z,100814.53
2022-09-02T12:50:32.542Z,100838.03
2022-09-02T12:55:34.110Z,100875.81
2022-09-02T13:00:40.128Z,100891.38
2022-09-02T13:05:51.848Z,100902.84
2022-09-02T13:11:23.502Z,100939.88
2022-09-02T13:16:34.597Z,100949.59
2022-09-02T13:21:56.347Z,100932.22
2022-09-02T13:27:33.693Z,100928.72
2022-09-02T13:32:34.123Z,100943.72
2022-09-02T13:37:36.755Z,100951.13
2022-09-02T13:42:37.353Z,100957.03
2022-09-02T13:47:36.612Z,100982.47
2022-09-02T13:53:34.677Z,100988.75
2022-09-02T13:58:01.306Z,100966.25
2022-09-02T14:03:02.726Z,100903.00
2022-09-02T14:08:04.342Z,100885.06
2022-09-02T14:13:05.326Z,100906.66
2022-09-02T14:18:18.362Z,100935.03
2022-09-02T14:23:17.970Z,100931.50
2022-09-02T14:28:24.255Z,100950.50
2022-09-02T14:33:28.357Z,100934.88
2022-09-02T14:38:28.897Z,100927.66
2022-09-02T14:43:30.260Z,100921.03
2022-09-02T14:48:28.666Z,100923.19
2022-09-02T14:53:26.926Z,100908.75
2022-09-02T14:58:27.036Z,100922.97
2022-09-02T15:03:27.689Z,100923.06
2022-09-02T15:08:26.054Z,100941.41
2022-09-02T15:13:29.410Z,100933.22
2022-09-02T15:18:30.045Z,100927.50
2022-09-02T15:23:32.579Z,100918.00
2022-09-02T15:28:32.958Z,100926.94
2022-09-02T15:33:33.038Z,100919.91
2022-09-02T15:38:31.201Z,100914.38
2022-09-02T15:43:29.401Z,100911.56
2022-09-02T15:48:28.285Z,100911.56
2022-09-02T15:53:28.092Z,100921.47
2022-09-02T15:58:26.261Z,100917.81
2022-09-02T16:03:24.624Z,100915.72
2022-09-02T16:08:23.162Z,100913.69
2022-09-02T16:13:23.095Z,100904.91
2022-09-02T16:18:21.499Z,100902.72
2022-09-02T16:23:19.749Z,100898.72
2022-09-02T16:28:17.986Z,100915.09
2022-09-02T16:33:17.440Z,100913.31
2022-09-02T16:38:16.001Z,100923.38
2022-09-02T16:43:14.498Z,100919.78
2022-09-02T16:48:12.734Z,100912.31
2022-09-02T16:53:12.598Z,100915.06
2022-09-02T16:58:11.763Z,100901.47
2022-09-02T17:03:11.900Z,100913.38
2022-09-02T17:08:11.509Z,100925.28
2022-09-02T17:13:09.637Z,100937.59
2022-09-02T17:18:07.993Z,100947.84
2022-09-02T17:23:06.249Z,100961.06
2022-09-02T17:28:05.917Z,100984.00
2022-09-02T17:33:05.166Z,100997.88
2022-09-02T17:38:03.460Z,101005.59
2022-09-02T17:43:02.147Z,101011.13
2022-09-02T17:48:19.063Z,101023.88
2022-09-02T17:53:19.943Z,101020.84
2022-09-02T17:58:21.607Z,101002.41
2022-09-02T18:03:43.461Z,100993.44
2022-09-02T18:08:52.062Z,100994.66
2022-09-02T18:13:56.778Z,100985.34
2022-09-02T18:19:13.185Z,100974.09
2022-09-02T18:24:19.542Z,100988.53
2022-09-02T18:29:32.683Z,100983.69
2022-09-02T18:34:44.355Z,100990.09
2022-09-02T18:40:01.990Z,100995.06
2022-09-02T18:45:08.898Z,100991.19
2022-09-02T18:50:22.109Z,100995.59
2022-09-02T18:55:35.145Z,100987.69
2022-09-02T19:00:46.570Z,100990.56
2022-09-02T19:05:46.621Z,100991.88
2022-09-02T19:10:44.806Z,100975.03
2022-09-02T19:15:43.368Z,100972.56
2022-09-02T19:20:42.254Z,100979.53
2022-09-02T19:25:44.693Z,100954.78
2022-09-02T19:30:43.137Z,100972.19
2022-09-02T19:35:46.567Z,100963.53
2022-09-02T19:40:49.608Z,100980.31
2022-09-02T19:45:51.415Z,100995.53
2022-09-02T19:50:49.886Z,100980.16
2022-09-02T19:55:51.213Z,100985.91
2022-09-02T20:00:49.631Z,100993.88
2022-09-02T20:05:49.952Z,100978.91
2022-09-02T20:10:56.509Z,100987.41
2022-09-02T20:15:55.555Z,101010.81
2022-09-02T20:20:57.930Z,101016.38
2022-09-02T20:26:17.511Z,101012.03
2022-09-02T20:31:23.141Z,101011.31
2022-09-02T20:36:29.400Z,101017.31
2022-09-02T20:41:38.290Z,101016.75
2022-09-02T20:46:52.555Z,101020.81
2022-09-02T20:51:57.617Z,101021.78
2022-09-02T20:57:09.414Z,101015.53
2022-09-02T21:02:10.743Z,101015.50
2022-09-02T21:07:14.590Z,101014.50
2022-09-02T21:12:32.438Z,101014.53
2022-09-02T21:17:40.135Z,101019.69
2022-09-02T21:22:44.437Z,101021.50
2022-09-02T21:27:50.111Z,101043.31
2022-09-02T21:32:51.781Z,101070.34
2022-09-02T21:37:52.710Z,101060.31
2022-09-02T21:43:16.386Z,101042.13
2022-09-02T21:48:33.825Z,101027.13
2022-09-02T21:53:53.689Z,101019.13
2022-09-02T21:59:15.591Z,101034.50
2022-09-02T22:04:31.558Z,101024.84
2022-09-02T22:09:33.004Z,101027.13
2022-09-02T22:14:38.293Z,101042.75
2022-09-02T22:19:40.462Z,101026.66
2022-09-02T22:24:40.572Z,101038.75
2022-09-02T22:29:46.821Z,101037.66
2022-09-02T22:34:50.953Z,101032.97
2022-09-02T22:39:51.908Z,101021.63
2022-09-02T22:45:18.357Z,101024.66
2022-09-02T22:50:37.210Z,101014.59
2022-09-02T22:55:47.183Z,101024.94
2022-09-02T23:00:50.246Z,101015.16
2022-09-02T23:06:01.244Z,101025.69
2022-09-02T23:11:07.261Z,101036.63
2022-09-02T23:16:14.275Z,101041.09
2022-09-02T23:21:21.351Z,101037.50
2022-09-02T23:26:31.885Z,101035.84
2022-09-02T23:31:58.948Z,101028.91
2022-09-02T23:37:06.853Z,101038.50
2022-09-02T23:42:05.417Z,101037.13
2022-09-02T23:47:19.798Z,101029.75
2022-09-02T23:52:27.385Z,101023.59
2022-09-02T23:57:46.509Z,101020.66
